LIBP/PSR METAR and TAF weather

Enter ICAO airport designator
Station Type Date Time Source
LIBP METAR 2020/08/15 15:50 UTC NOAA

LIBP 151550Z AUTO 05006KT 010V090 9999 FEW150/// 28/22 Q1011


Station Type Date Time Source
LIBP Decoded METAR 2020/08/15 15:50 UTC NOAA

Pescara, Italy (LIBP) 42-26N 014-12E 11M
Aug 15, 2020 - 11:50 AM EDT / 2020.08.15 1550 UTC
Wind: from the NE (050 degrees) at 7 MPH (6 KT) (direction variable):0
Visibility: greater than 7 mile(s):0
Sky conditions: mostly clear
Temperature: 82 F (28 C)
Dew Point: 71 F (22 C)
Relative Humidity: 69%
Pressure (altimeter): 29.85 in. Hg (1011 hPa)
ob: LIBP 151550Z AUTO 05006KT 010V090 9999 FEW150/// 28/22 Q1011
cycle: 16

Station Type Date Time Source
LIBP TAF 2020/08/15 12:21 UTC NOAA

TAF LIBP 151100Z 1512/1612 03010KT CAVOK
BECMG 1516/1518 VRB04KT
BECMG 1608/1610 04010KT

Example: see airport list